sensor_id;sensor_type;location;lat;lon;timestamp;P1;P2;P0
53698;PMS7003;68408;53.952;27.612;2023-06-14T00:02:04;2.6;2;1.7
53698;PMS7003;68408;53.952;27.612;2023-06-14T00:07:14;2.9;2.1;1.8
53698;PMS7003;68408;53.952;27.612;2023-06-14T00:12:24;3.3;2.5;1.9
53698;PMS7003;68408;53.952;27.612;2023-06-14T00:16:48;3.3;2.7;2.4
53698;PMS7003;68408;53.952;27.612;2023-06-14T00:21:44;3.1;2.4;2.1
53698;PMS7003;68408;53.952;27.612;2023-06-14T00:26:40;3.4;2.6;2.3
53698;PMS7003;68408;53.952;27.612;2023-06-14T00:32:20;3.4;2.2;2
53698;PMS7003;68408;53.952;27.612;2023-06-14T00:36:58;3;2.5;2
53698;PMS7003;68408;53.952;27.612;2023-06-14T00:42:04;2.7;2.3;2.1
53698;PMS7003;68408;53.952;27.612;2023-06-14T00:47:16;3.8;2.5;2.4
53698;PMS7003;68408;53.952;27.612;2023-06-14T00:52:23;3.5;3;2.5
53698;PMS7003;68408;53.952;27.612;2023-06-14T00:56:38;4.2;2.9;2.6
53698;PMS7003;68408;53.952;27.612;2023-06-14T01:01:40;4.1;2.9;2.4
53698;PMS7003;68408;53.952;27.612;2023-06-14T01:07:15;3.4;2.7;2.4
53698;PMS7003;68408;53.952;27.612;2023-06-14T01:12:24;4;2.9;2.5
53698;PMS7003;68408;53.952;27.612;2023-06-14T01:16:56;3.6;2.6;2.2
53698;PMS7003;68408;53.952;27.612;2023-06-14T01:21:40;4;2.9;2.6
53698;PMS7003;68408;53.952;27.612;2023-06-14T01:27:14;4.6;3.8;3.2
53698;PMS7003;68408;53.952;27.612;2023-06-14T01:32:14;3.9;2.9;2.5
53698;PMS7003;68408;53.952;27.612;2023-06-14T01:37:16;4.6;3.7;3.1
53698;PMS7003;68408;53.952;27.612;2023-06-14T01:41:54;4.9;4;3.2
53698;PMS7003;68408;53.952;27.612;2023-06-14T01:46:56;5.1;3.7;3.3
53698;PMS7003;68408;53.952;27.612;2023-06-14T01:52:22;3.8;3.6;3.1
53698;PMS7003;68408;53.952;27.612;2023-06-14T01:56:56;4.8;3.5;3
53698;PMS7003;68408;53.952;27.612;2023-06-14T02:02:12;4;3.6;3
53698;PMS7003;68408;53.952;27.612;2023-06-14T02:07:16;4.1;3.6;3.1
53698;PMS7003;68408;53.952;27.612;2023-06-14T02:12:22;4.2;3.6;3.2
53698;PMS7003;68408;53.952;27.612;2023-06-14T02:16:38;3.9;3.6;3.1
53698;PMS7003;68408;53.952;27.612;2023-06-14T02:22:04;5;3.9;3.3
53698;PMS7003;68408;53.952;27.612;2023-06-14T02:27:16;5;3.6;3.1
53698;PMS7003;68408;53.952;27.612;2023-06-14T02:32:20;5.3;4;3.4
53698;PMS7003;68408;53.952;27.612;2023-06-14T02:36:48;4.7;3.7;3
53698;PMS7003;68408;53.952;27.612;2023-06-14T02:42:04;4.5;3.1;2.5
53698;PMS7003;68408;53.952;27.612;2023-06-14T02:47:16;4;3.1;2.5
53698;PMS7003;68408;53.952;27.612;2023-06-14T02:52:22;4.1;3;2.5
53698;PMS7003;68408;53.952;27.612;2023-06-14T02:57:10;4.7;3.8;3.2
53698;PMS7003;68408;53.952;27.612;2023-06-14T03:02:06;4.2;3.6;3.2
53698;PMS7003;68408;53.952;27.612;2023-06-14T03:06:50;4.4;3.4;2.7
53698;PMS7003;68408;53.952;27.612;2023-06-14T03:12:22;4.4;3.5;2.9
53698;PMS7003;68408;53.952;27.612;2023-06-14T03:16:46;4.8;4.1;3.4
53698;PMS7003;68408;53.952;27.612;2023-06-14T03:21:56;5.6;4.3;3.4
53698;PMS7003;68408;53.952;27.612;2023-06-14T03:27:14;4.5;3.9;3.5
53698;PMS7003;68408;53.952;27.612;2023-06-14T03:32:12;4.7;4.1;3.4
53698;PMS7003;68408;53.952;27.612;2023-06-14T03:36:46;4.9;4.1;3.5
53698;PMS7003;68408;53.952;27.612;2023-06-14T03:42:04;5.1;4.1;3.4
53698;PMS7003;68408;53.952;27.612;2023-06-14T03:47:16;5.9;4.4;3.8
53698;PMS7003;68408;53.952;27.612;2023-06-14T03:52:20;4.8;3.9;3.3
53698;PMS7003;68408;53.952;27.612;2023-06-14T03:56:38;6.2;4.6;3.8
53698;PMS7003;68408;53.952;27.612;2023-06-14T04:02:04;5.9;4.5;3.9
53698;PMS7003;68408;53.952;27.612;2023-06-14T04:07:16;5.2;4.4;3.8
53698;PMS7003;68408;53.952;27.612;2023-06-14T04:12:22;5;4.2;3.4
53698;PMS7003;68408;53.952;27.612;2023-06-14T04:16:48;4.9;4.1;3.5
53698;PMS7003;68408;53.952;27.612;2023-06-14T04:22:06;5;4.3;3.4
53698;PMS7003;68408;53.952;27.612;2023-06-14T04:27:14;5.4;4.4;3.8
53698;PMS7003;68408;53.952;27.612;2023-06-14T04:32:23;5.9;4.6;3.6
53698;PMS7003;68408;53.952;27.612;2023-06-14T04:36:56;4.8;3.9;3.5
53698;PMS7003;68408;53.952;27.612;2023-06-14T04:42:04;6.2;5.4;4.6
53698;PMS7003;68408;53.952;27.612;2023-06-14T04:47:16;4.7;4.1;3.4
53698;PMS7003;68408;53.952;27.612;2023-06-14T04:52:22;3.9;2.9;2.5
53698;PMS7003;68408;53.952;27.612;2023-06-14T04:56:38;5.4;4.3;3.7
53698;PMS7003;68408;53.952;27.612;2023-06-14T05:02:04;5.8;4.6;3.8
53698;PMS7003;68408;53.952;27.612;2023-06-14T05:07:02;4.8;4;3.6
53698;PMS7003;68408;53.952;27.612;2023-06-14T05:12:24;4.8;4.4;3.6
53698;PMS7003;68408;53.952;27.612;2023-06-14T05:16:38;5.3;4.1;3.5
53698;PMS7003;68408;53.952;27.612;2023-06-14T05:22:06;5.1;4.3;3.7
53698;PMS7003;68408;53.952;27.612;2023-06-14T05:27:06;5.5;4.3;3.6
53698;PMS7003;68408;53.952;27.612;2023-06-14T05:32:22;5.8;4.1;3.2
53698;PMS7003;68408;53.952;27.612;2023-06-14T05:36:38;5.6;4.5;4.1
53698;PMS7003;68408;53.952;27.612;2023-06-14T05:42:04;5.1;3.6;3
53698;PMS7003;68408;53.952;27.612;2023-06-14T05:47:16;6.2;4.2;3.5
53698;PMS7003;68408;53.952;27.612;2023-06-14T05:52:22;5.7;4.8;4
53698;PMS7003;68408;53.952;27.612;2023-06-14T05:56:50;5.4;3.9;3.2
53698;PMS7003;68408;53.952;27.612;2023-06-14T06:02:06;5.1;3.8;3.3
53698;PMS7003;68408;53.952;27.612;2023-06-14T06:06:52;5.5;3.9;3.3
53698;PMS7003;68408;53.952;27.612;2023-06-14T06:12:24;5;3.5;3.1
53698;PMS7003;68408;53.952;27.612;2023-06-14T06:16:46;4.9;3.6;3.2
53698;PMS7003;68408;53.952;27.612;2023-06-14T06:21:48;5.1;3.7;3.2
53698;PMS7003;68408;53.952;27.612;2023-06-14T06:27:26;4.8;3.7;3.1
53698;PMS7003;68408;53.952;27.612;2023-06-14T06:32:26;5.2;4.2;3.5
53698;PMS7003;68408;53.952;27.612;2023-06-14T06:36:38;4.4;4;3.3
53698;PMS7003;68408;53.952;27.612;2023-06-14T06:42:00;4;2.8;2.2
53698;PMS7003;68408;53.952;27.612;2023-06-14T06:47:16;4.2;3.4;2.9
53698;PMS7003;68408;53.952;27.612;2023-06-14T06:52:24;4.4;3.7;3
53698;PMS7003;68408;53.952;27.612;2023-06-14T06:56:38;5.5;4.1;3.5
53698;PMS7003;68408;53.952;27.612;2023-06-14T07:02:00;5;3.9;2.9
53698;PMS7003;68408;53.952;27.612;2023-06-14T07:07:17;5.1;3.9;3.4
53698;PMS7003;68408;53.952;27.612;2023-06-14T07:12:24;3.2;2.8;2.2
53698;PMS7003;68408;53.952;27.612;2023-06-14T07:16:38;4;3.3;2.7
53698;PMS7003;68408;53.952;27.612;2023-06-14T07:22:08;5.2;4;3.2
53698;PMS7003;68408;53.952;27.612;2023-06-14T07:27:18;3.9;3;2.5
53698;PMS7003;68408;53.952;27.612;2023-06-14T07:31:38;6.1;5.1;4
53698;PMS7003;68408;53.952;27.612;2023-06-14T07:36:56;4.9;4;3.4
53698;PMS7003;68408;53.952;27.612;2023-06-14T07:42:00;5.5;4.4;3.6
53698;PMS7003;68408;53.952;27.612;2023-06-14T07:47:06;5.2;4.4;3.5
53698;PMS7003;68408;53.952;27.612;2023-06-14T07:52:06;5.1;3.8;3.1
53698;PMS7003;68408;53.952;27.612;2023-06-14T07:57:12;4.8;3.9;3.2
53698;PMS7003;68408;53.952;27.612;2023-06-14T08:01:58;5.7;3.9;3.2
53698;PMS7003;68408;53.952;27.612;2023-06-14T08:07:06;4.7;3.7;3.1
53698;PMS7003;68408;53.952;27.612;2023-06-14T08:12:07;4.3;3.3;2.7
53698;PMS7003;68408;53.952;27.612;2023-06-14T08:17:00;4.1;3.4;2.8
53698;PMS7003;68408;53.952;27.612;2023-06-14T08:21:56;5.1;3.8;3.4
53698;PMS7003;68408;53.952;27.612;2023-06-14T08:26:54;4.3;3.7;3.1
53698;PMS7003;68408;53.952;27.612;2023-06-14T08:32:04;5.4;4.1;3.7
53698;PMS7003;68408;53.952;27.612;2023-06-14T08:36:40;5.7;4.1;3.2
53698;PMS7003;68408;53.952;27.612;2023-06-14T08:41:46;4.7;4;3.3
53698;PMS7003;68408;53.952;27.612;2023-06-14T08:46:52;5.2;3.8;3.2
53698;PMS7003;68408;53.952;27.612;2023-06-14T08:51:38;4.8;3.9;3.4
53698;PMS7003;68408;53.952;27.612;2023-06-14T08:57:11;5.9;4.6;3.7
53698;PMS7003;68408;53.952;27.612;2023-06-14T09:02:00;5.3;3.9;3.3
53698;PMS7003;68408;53.952;27.612;2023-06-14T09:07:12;5.5;4.5;3.6
53698;PMS7003;68408;53.952;27.612;2023-06-14T09:11:54;5;4.5;3.5
53698;PMS7003;68408;53.952;27.612;2023-06-14T09:16:40;5.9;4.8;3.8
53698;PMS7003;68408;53.952;27.612;2023-06-14T09:21:49;6.1;5.4;4.5
53698;PMS7003;68408;53.952;27.612;2023-06-14T09:26:39;7.1;5.6;4.4
53698;PMS7003;68408;53.952;27.612;2023-06-14T09:31:50;6;5.2;4.3
53698;PMS7003;68408;53.952;27.612;2023-06-14T09:37:12;6.6;4.8;4.1
53698;PMS7003;68408;53.952;27.612;2023-06-14T09:42:03;5.7;4.7;3.8
53698;PMS7003;68408;53.952;27.612;2023-06-14T09:47:06;6.5;4.9;4.2
53698;PMS7003;68408;53.952;27.612;2023-06-14T09:52:07;5.9;5.1;4.5
53698;PMS7003;68408;53.952;27.612;2023-06-14T09:57:13;6.3;5;4.3
53698;PMS7003;68408;53.952;27.612;2023-06-14T10:01:40;5.4;4.7;4.1
53698;PMS7003;68408;53.952;27.612;2023-06-14T10:06:41;6.3;5.2;4.5
53698;PMS7003;68408;53.952;27.612;2023-06-14T10:11:38;4.5;3.9;3.4
53698;PMS7003;68408;53.952;27.612;2023-06-14T10:17:13;5.5;4.8;3.9
53698;PMS7003;68408;53.952;27.612;2023-06-14T10:21:51;5.1;4.4;3.7
53698;PMS7003;68408;53.952;27.612;2023-06-14T10:27:00;5.4;4.4;3.7
53698;PMS7003;68408;53.952;27.612;2023-06-14T10:31:56;4.7;3.9;3.3
53698;PMS7003;68408;53.952;27.612;2023-06-14T10:37:11;5.7;4.5;3.8
53698;PMS7003;68408;53.952;27.612;2023-06-14T10:42:01;4.8;4;3.2
53698;PMS7003;68408;53.952;27.612;2023-06-14T10:46:38;5.3;4;3.5
53698;PMS7003;68408;53.952;27.612;2023-06-14T10:52:07;6;4.7;3.9
53698;PMS7003;68408;53.952;27.612;2023-06-14T10:57:12;5.5;4.5;4
53698;PMS7003;68408;53.952;27.612;2023-06-14T11:02:06;6.1;4.9;4.2
53698;PMS7003;68408;53.952;27.612;2023-06-14T11:06:54;5.3;4.6;3.9
53698;PMS7003;68408;53.952;27.612;2023-06-14T11:11:38;6.3;5.2;4.1
53698;PMS7003;68408;53.952;27.612;2023-06-14T11:16:47;4.6;4;3.6
53698;PMS7003;68408;53.952;27.612;2023-06-14T11:21:48;5.7;4.2;3.8
53698;PMS7003;68408;53.952;27.612;2023-06-14T11:27:06;5;4;3.6
53698;PMS7003;68408;53.952;27.612;2023-06-14T11:31:54;4.7;4.3;3.5
53698;PMS7003;68408;53.952;27.612;2023-06-14T11:37:14;4.5;3.7;3.2
53698;PMS7003;68408;53.952;27.612;2023-06-14T11:41:39;4.1;3.4;3
53698;PMS7003;68408;53.952;27.612;2023-06-14T11:47:06;4.7;4;3.5
53698;PMS7003;68408;53.952;27.612;2023-06-14T11:51:39;5.2;4.2;3.5
53698;PMS7003;68408;53.952;27.612;2023-06-14T11:57:14;5.1;3.9;3.3
53698;PMS7003;68408;53.952;27.612;2023-06-14T12:01:38;4.6;3.7;3.2
53698;PMS7003;68408;53.952;27.612;2023-06-14T12:07:10;4.2;3.6;3.1
53698;PMS7003;68408;53.952;27.612;2023-06-14T12:12:07;4.8;4.1;3.3
53698;PMS7003;68408;53.952;27.612;2023-06-14T12:17:16;4.6;4.1;3.6
53698;PMS7003;68408;53.952;27.612;2023-06-14T12:22:03;5;3.8;3.3
53698;PMS7003;68408;53.952;27.612;2023-06-14T12:26:54;4.8;4;3.4
53698;PMS7003;68408;53.952;27.612;2023-06-14T12:31:38;5.2;4.5;3.7
53698;PMS7003;68408;53.952;27.612;2023-06-14T12:37:08;5.2;3.9;3.4
53698;PMS7003;68408;53.952;27.612;2023-06-14T12:42:20;4.8;4.1;3.4
53698;PMS7003;68408;53.952;27.612;2023-06-14T12:46:39;5.5;4.5;3.9
53698;PMS7003;68408;53.952;27.612;2023-06-14T12:51:50;4.7;3.9;3.2
53698;PMS7003;68408;53.952;27.612;2023-06-14T12:56:42;4.8;3.9;3.5
53698;PMS7003;68408;53.952;27.612;2023-06-14T13:01:48;5.4;4.4;3.8
53698;PMS7003;68408;53.952;27.612;2023-06-14T13:06:50;4.9;3.9;3.3
53698;PMS7003;68408;53.952;27.612;2023-06-14T13:11:38;4.8;4.3;3.8
53698;PMS7003;68408;53.952;27.612;2023-06-14T13:16:58;5.9;5.1;4.4
53698;PMS7003;68408;53.952;27.612;2023-06-14T13:21:50;5.1;4.6;3.8
53698;PMS7003;68408;53.952;27.612;2023-06-14T13:27:06;6.1;4.6;3.8
53698;PMS7003;68408;53.952;27.612;2023-06-14T13:31:38;4.9;4;3.5
53698;PMS7003;68408;53.952;27.612;2023-06-14T13:36:54;4.6;4.3;3.7
53698;PMS7003;68408;53.952;27.612;2023-06-14T13:42:00;6.5;4.3;3.7
53698;PMS7003;68408;53.952;27.612;2023-06-14T13:46:54;4.9;3.8;3.2
53698;PMS7003;68408;53.952;27.612;2023-06-14T13:52:05;5.1;4.1;3.5
53698;PMS7003;68408;53.952;27.612;2023-06-14T13:56:38;5.3;4.3;3.4
53698;PMS7003;68408;53.952;27.612;2023-06-14T14:01:50;4.6;3.5;3
53698;PMS7003;68408;53.952;27.612;2023-06-14T14:06:50;4.8;3.7;3.1
53698;PMS7003;68408;53.952;27.612;2023-06-14T14:11:38;4.2;3.7;3.2
53698;PMS7003;68408;53.952;27.612;2023-06-14T14:16:54;5.5;4.5;4
53698;PMS7003;68408;53.952;27.612;2023-06-14T14:21:50;6.4;5.3;4.5
53698;PMS7003;68408;53.952;27.612;2023-06-14T14:27:28;5.8;5.2;4.1
53698;PMS7003;68408;53.952;27.612;2023-06-14T14:31:50;5.4;4.2;3.7
53698;PMS7003;68408;53.952;27.612;2023-06-14T14:36:54;6;4.8;4.3
53698;PMS7003;68408;53.952;27.612;2023-06-14T14:41:38;4.7;4.3;3.6
53698;PMS7003;68408;53.952;27.612;2023-06-14T14:46:38;5.3;4.4;3.7
53698;PMS7003;68408;53.952;27.612;2023-06-14T14:51:50;6;5.1;4.3
53698;PMS7003;68408;53.952;27.612;2023-06-14T14:56:42;5.4;4.7;3.9
53698;PMS7003;68408;53.952;27.612;2023-06-14T15:02:00;6;4.7;3.9
53698;PMS7003;68408;53.952;27.612;2023-06-14T15:07:27;6.1;5.2;4.4
53698;PMS7003;68408;53.952;27.612;2023-06-14T15:11:38;7.4;5.7;5
53698;PMS7003;68408;53.952;27.612;2023-06-14T15:16:54;7.9;6.9;5.9
53698;PMS7003;68408;53.952;27.612;2023-06-14T15:22:03;6.6;5.5;4.5
53698;PMS7003;68408;53.952;27.612;2023-06-14T15:27:12;6.6;5.1;4.4
53698;PMS7003;68408;53.952;27.612;2023-06-14T15:32:20;6.3;5.1;4.3
53698;PMS7003;68408;53.952;27.612;2023-06-14T15:36:56;6;5.2;4.4
53698;PMS7003;68408;53.952;27.612;2023-06-14T15:42:03;6.2;5.2;4.3
53698;PMS7003;68408;53.952;27.612;2023-06-14T15:46:38;7;5.1;4.3
53698;PMS7003;68408;53.952;27.612;2023-06-14T15:51:50;6.3;5.5;4.5
53698;PMS7003;68408;53.952;27.612;2023-06-14T15:56:57;7;5.8;4.8
53698;PMS7003;68408;53.952;27.612;2023-06-14T16:02:00;7;5.4;4.6
53698;PMS7003;68408;53.952;27.612;2023-06-14T16:07:07;6.4;5.5;4.7
53698;PMS7003;68408;53.952;27.612;2023-06-14T16:11:39;6.9;5.5;4.9
53698;PMS7003;68408;53.952;27.612;2023-06-14T16:16:55;6.1;5.3;4.3
53698;PMS7003;68408;53.952;27.612;2023-06-14T16:22:03;6.2;5.4;4.7
53698;PMS7003;68408;53.952;27.612;2023-06-14T16:27:06;6;5;4.2
53698;PMS7003;68408;53.952;27.612;2023-06-14T16:32:20;6.3;5.3;4.6
53698;PMS7003;68408;53.952;27.612;2023-06-14T16:36:54;5.8;4.6;3.8
53698;PMS7003;68408;53.952;27.612;2023-06-14T16:42:07;6.8;5.5;4.6
53698;PMS7003;68408;53.952;27.612;2023-06-14T16:46:39;6.7;5.4;4.6
53698;PMS7003;68408;53.952;27.612;2023-06-14T16:51:55;6.5;5.5;4.6
53698;PMS7003;68408;53.952;27.612;2023-06-14T16:56:55;5.4;4.8;3.9
53698;PMS7003;68408;53.952;27.612;2023-06-14T17:01:39;6.6;5.2;4.4
53698;PMS7003;68408;53.952;27.612;2023-06-14T17:07:13;6.4;5.5;4.7
53698;PMS7003;68408;53.952;27.612;2023-06-14T17:11:39;6;4.9;4.1
53698;PMS7003;68408;53.952;27.612;2023-06-14T17:17:19;5.6;4.9;4.2
53698;PMS7003;68408;53.952;27.612;2023-06-14T17:22:01;5.5;4.6;4.1
53698;PMS7003;68408;53.952;27.612;2023-06-14T17:27:07;5.4;4.5;3.9
53698;PMS7003;68408;53.952;27.612;2023-06-14T18:02:03;6.3;5.2;4.3
53698;PMS7003;68408;53.952;27.612;2023-06-14T18:06:51;5.8;5.4;4.7
53698;PMS7003;68408;53.952;27.612;2023-06-14T18:12:09;6.8;5.1;4.3
53698;PMS7003;68408;53.952;27.612;2023-06-14T18:16:55;6.7;5.8;5
53698;PMS7003;68408;53.952;27.612;2023-06-14T18:21:39;5.6;5.2;4.3
53698;PMS7003;68408;53.952;27.612;2023-06-14T18:27:07;6.3;5.5;4.7
53698;PMS7003;68408;53.952;27.612;2023-06-14T18:31:39;6.1;5.3;4.4
53698;PMS7003;68408;53.952;27.612;2023-06-14T18:36:47;7.6;6.4;5.3
53698;PMS7003;68408;53.952;27.612;2023-06-14T18:41:51;7.7;6.3;5.2
53698;PMS7003;68408;53.952;27.612;2023-06-14T18:47:07;7.4;5.9;5.2
53698;PMS7003;68408;53.952;27.612;2023-06-14T18:51:39;7.2;6.4;5.4
53698;PMS7003;68408;53.952;27.612;2023-06-14T18:56:59;8.2;6.6;5.8
53698;PMS7003;68408;53.952;27.612;2023-06-14T19:01:39;8.2;6.3;5.4
53698;PMS7003;68408;53.952;27.612;2023-06-14T19:07:05;8.5;7;5.8
53698;PMS7003;68408;53.952;27.612;2023-06-14T19:11:45;7.5;6.6;5.6
53698;PMS7003;68408;53.952;27.612;2023-06-14T19:16:57;7.4;6.2;5.4
53698;PMS7003;68408;53.952;27.612;2023-06-14T19:22:03;8.4;7.1;6.1
53698;PMS7003;68408;53.952;27.612;2023-06-14T19:27:05;7.3;6.7;5.5
53698;PMS7003;68408;53.952;27.612;2023-06-14T19:31:57;8.4;7.7;6.4
53698;PMS7003;68408;53.952;27.612;2023-06-14T19:36:39;7.9;7.2;6
53698;PMS7003;68408;53.952;27.612;2023-06-14T19:42:03;7.6;6.7;5.6
53698;PMS7003;68408;53.952;27.612;2023-06-14T19:46:39;8.4;7.2;6
53698;PMS7003;68408;53.952;27.612;2023-06-14T19:51:51;8;6.2;5.3
53698;PMS7003;68408;53.952;27.612;2023-06-14T19:56:57;8.3;7.5;6.1
53698;PMS7003;68408;53.952;27.612;2023-06-14T20:02:01;8;7.2;6
53698;PMS7003;68408;53.952;27.612;2023-06-14T20:07:05;8.8;7.7;6.5
53698;PMS7003;68408;53.952;27.612;2023-06-14T20:11:51;9;7.9;6.5
53698;PMS7003;68408;53.952;27.612;2023-06-14T20:17:07;7.7;6.7;5.5
53698;PMS7003;68408;53.952;27.612;2023-06-14T20:21:59;8.9;7.8;6.4
53698;PMS7003;68408;53.952;27.612;2023-06-14T20:26:53;9.5;7.9;6.6
53698;PMS7003;68408;53.952;27.612;2023-06-14T20:31:39;10.4;8.4;6.8
53698;PMS7003;68408;53.952;27.612;2023-06-14T20:36:57;10.5;8.8;7.2
53698;PMS7003;68408;53.952;27.612;2023-06-14T20:41:59;11.1;8.8;7.3
53698;PMS7003;68408;53.952;27.612;2023-06-14T20:47:05;9.3;8.4;6.7
53698;PMS7003;68408;53.952;27.612;2023-06-14T20:51:57;9.8;8.2;7.1
53698;PMS7003;68408;53.952;27.612;2023-06-14T20:56:51;9.7;8.2;7.1
53698;PMS7003;68408;53.952;27.612;2023-06-14T21:02:27;10.6;8.7;7.4
53698;PMS7003;68408;53.952;27.612;2023-06-14T21:06:59;9.6;8.5;7.1
53698;PMS7003;68408;53.952;27.612;2023-06-14T21:11:39;9.5;7.6;6.2
53698;PMS7003;68408;53.952;27.612;2023-06-14T21:17:13;10.1;8.4;6.9
53698;PMS7003;68408;53.952;27.612;2023-06-14T21:22:11;10;9;7.4
53698;PMS7003;68408;53.952;27.612;2023-06-14T21:27:05;11;9;7.6
53698;PMS7003;68408;53.952;27.612;2023-06-14T21:31:51;10.8;9.4;7.7
53698;PMS7003;68408;53.952;27.612;2023-06-14T21:36:49;10.4;9.4;8
53698;PMS7003;68408;53.952;27.612;2023-06-14T21:41:39;10.3;8.3;6.8
53698;PMS7003;68408;53.952;27.612;2023-06-14T21:47:11;10.5;9.5;7.8
53698;PMS7003;68408;53.952;27.612;2023-06-14T21:51:49;10;8.6;7.1
53698;PMS7003;68408;53.952;27.612;2023-06-14T21:56:49;9.4;8.4;7
53698;PMS7003;68408;53.952;27.612;2023-06-14T22:01:59;9.4;8.7;7.3
53698;PMS7003;68408;53.952;27.612;2023-06-14T22:07:11;9.9;8.7;7.4
53698;PMS7003;68408;53.952;27.612;2023-06-14T22:11:39;10.4;8.8;7.4
53698;PMS7003;68408;53.952;27.612;2023-06-14T22:16:55;10.4;8.9;7.3
53698;PMS7003;68408;53.952;27.612;2023-06-14T22:21:49;9.1;7.7;6.7
53698;PMS7003;68408;53.952;27.612;2023-06-14T22:27:11;9.4;8.2;7.1
53698;PMS7003;68408;53.952;27.612;2023-06-14T22:31:49;9;8.3;7.1
53698;PMS7003;68408;53.952;27.612;2023-06-14T22:36:55;8.7;7.6;6.6
53698;PMS7003;68408;53.952;27.612;2023-06-14T22:41:59;10;8.8;7.3
53698;PMS7003;68408;53.952;27.612;2023-06-14T22:47:11;10;8.3;7.3
53698;PMS7003;68408;53.952;27.612;2023-06-14T22:51:55;9.9;8.3;7.2
53698;PMS7003;68408;53.952;27.612;2023-06-14T22:56:39;9.5;8.2;7
53698;PMS7003;68408;53.952;27.612;2023-06-14T23:01:39;9.1;8.6;7.1
53698;PMS7003;68408;53.952;27.612;2023-06-14T23:07:05;9.9;8.6;7.1
53698;PMS7003;68408;53.952;27.612;2023-06-14T23:11:49;9.5;8.1;6.7
53698;PMS7003;68408;53.952;27.612;2023-06-14T23:16:53;8.7;7.4;6.3
53698;PMS7003;68408;53.952;27.612;2023-06-14T23:22:01;9.6;8.2;7.1
53698;PMS7003;68408;53.952;27.612;2023-06-14T23:27:23;9.4;8.3;7
53698;PMS7003;68408;53.952;27.612;2023-06-14T23:31:49;9.5;7.7;6.5
53698;PMS7003;68408;53.952;27.612;2023-06-14T23:37:09;8.9;7.6;6.3
53698;PMS7003;68408;53.952;27.612;2023-06-14T23:42:01;8.7;7.6;6.5
53698;PMS7003;68408;53.952;27.612;2023-06-14T23:47:11;8.6;7.6;6.4
53698;PMS7003;68408;53.952;27.612;2023-06-14T23:51:49;8.6;7.6;6.2
53698;PMS7003;68408;53.952;27.612;2023-06-14T23:57:11;8.5;7.6;6
